sensor_id;sensor_type;location;lat;lon;timestamp;P1;durP1;ratioP1;P2;durP2;ratioP2
29168;SDS011;16219;42.864;23.360;2023-03-31T00:02:00;4.53;;;2.03;;
29168;SDS011;16219;42.864;23.360;2023-03-31T00:04:27;3.08;;;1.35;;
29168;SDS011;16219;42.864;23.360;2023-03-31T00:06:56;1.08;;;1.08;;
29168;SDS011;16219;42.864;23.360;2023-03-31T00:09:23;0.95;;;0.95;;
29168;SDS011;16219;42.864;23.360;2023-03-31T00:11:50;3.92;;;2.20;;
29168;SDS011;16219;42.864;23.360;2023-03-31T00:14:18;1.63;;;1.33;;
29168;SDS011;16219;42.864;23.360;2023-03-31T00:16:46;1.92;;;1.35;;
29168;SDS011;16219;42.864;23.360;2023-03-31T00:19:14;1.27;;;1.17;;
29168;SDS011;16219;42.864;23.360;2023-03-31T00:21:45;6.85;;;1.50;;
29168;SDS011;16219;42.864;23.360;2023-03-31T00:24:13;1.20;;;1.10;;
29168;SDS011;16219;42.864;23.360;2023-03-31T00:26:41;1.30;;;1.20;;
29168;SDS011;16219;42.864;23.360;2023-03-31T00:29:08;9.95;;;2.60;;
29168;SDS011;16219;42.864;23.360;2023-03-31T00:31:37;2.55;;;1.85;;
29168;SDS011;16219;42.864;23.360;2023-03-31T00:34:04;1.25;;;1.25;;
29168;SDS011;16219;42.864;23.360;2023-03-31T00:36:34;3.78;;;2.58;;
29168;SDS011;16219;42.864;23.360;2023-03-31T00:39:12;1.63;;;1.52;;
29168;SDS011;16219;42.864;23.360;2023-03-31T00:41:40;2.30;;;2.10;;
29168;SDS011;16219;42.864;23.360;2023-03-31T00:44:09;2.38;;;1.90;;
29168;SDS011;16219;42.864;23.360;2023-03-31T00:46:43;1.63;;;1.52;;
29168;SDS011;16219;42.864;23.360;2023-03-31T00:49:18;3.33;;;1.80;;
29168;SDS011;16219;42.864;23.360;2023-03-31T00:54:20;2.10;;;1.67;;
29168;SDS011;16219;42.864;23.360;2023-03-31T00:56:50;3.03;;;2.05;;
29168;SDS011;16219;42.864;23.360;2023-03-31T00:59:23;2.35;;;1.77;;
29168;SDS011;16219;42.864;23.360;2023-03-31T01:01:55;2.55;;;2.15;;
29168;SDS011;16219;42.864;23.360;2023-03-31T01:04:27;1.83;;;1.60;;
29168;SDS011;16219;42.864;23.360;2023-03-31T01:07:01;3.55;;;2.28;;
29168;SDS011;16219;42.864;23.360;2023-03-31T01:09:33;1.25;;;1.23;;
29168;SDS011;16219;42.864;23.360;2023-03-31T01:12:03;5.30;;;2.88;;
29168;SDS011;16219;42.864;23.360;2023-03-31T01:14:33;6.18;;;1.55;;
29168;SDS011;16219;42.864;23.360;2023-03-31T01:17:00;2.67;;;1.63;;
29168;SDS011;16219;42.864;23.360;2023-03-31T01:19:32;2.17;;;1.50;;
29168;SDS011;16219;42.864;23.360;2023-03-31T01:22:16;5.05;;;2.58;;
29168;SDS011;16219;42.864;23.360;2023-03-31T01:28:25;3.55;;;1.67;;
29168;SDS011;16219;42.864;23.360;2023-03-31T01:31:13;7.05;;;2.38;;
29168;SDS011;16219;42.864;23.360;2023-03-31T01:37:31;0.77;;;0.77;;
29168;SDS011;16219;42.864;23.360;2023-03-31T01:43:32;1.40;;;1.30;;
29168;SDS011;16219;42.864;23.360;2023-03-31T01:46:08;2.22;;;1.85;;
29168;SDS011;16219;42.864;23.360;2023-03-31T01:48:45;5.38;;;1.77;;
29168;SDS011;16219;42.864;23.360;2023-03-31T01:51:21;1.60;;;1.27;;
29168;SDS011;16219;42.864;23.360;2023-03-31T01:54:00;2.03;;;1.42;;
29168;SDS011;16219;42.864;23.360;2023-03-31T01:56:36;1.30;;;1.20;;
29168;SDS011;16219;42.864;23.360;2023-03-31T01:59:09;1.50;;;1.40;;
29168;SDS011;16219;42.864;23.360;2023-03-31T02:01:40;8.82;;;2.22;;
29168;SDS011;16219;42.864;23.360;2023-03-31T02:04:16;3.15;;;2.67;;
29168;SDS011;16219;42.864;23.360;2023-03-31T02:06:47;2.20;;;2.00;;
29168;SDS011;16219;42.864;23.360;2023-03-31T02:09:22;4.25;;;2.22;;
29168;SDS011;16219;42.864;23.360;2023-03-31T02:11:53;7.70;;;2.78;;
29168;SDS011;16219;42.864;23.360;2023-03-31T02:14:22;2.30;;;1.85;;
29168;SDS011;16219;42.864;23.360;2023-03-31T02:16:54;1.67;;;1.58;;
29168;SDS011;16219;42.864;23.360;2023-03-31T02:19:28;3.33;;;2.90;;
29168;SDS011;16219;42.864;23.360;2023-03-31T02:21:58;1.83;;;1.73;;
29168;SDS011;16219;42.864;23.360;2023-03-31T02:24:28;2.17;;;1.40;;
29168;SDS011;16219;42.864;23.360;2023-03-31T02:27:00;5.75;;;1.50;;
29168;SDS011;16219;42.864;23.360;2023-03-31T02:29:31;4.75;;;2.55;;
29168;SDS011;16219;42.864;23.360;2023-03-31T02:32:00;3.45;;;1.85;;
29168;SDS011;16219;42.864;23.360;2023-03-31T02:34:34;2.78;;;1.17;;
29168;SDS011;16219;42.864;23.360;2023-03-31T02:37:01;5.10;;;2.83;;
29168;SDS011;16219;42.864;23.360;2023-03-31T02:39:29;4.93;;;2.20;;
29168;SDS011;16219;42.864;23.360;2023-03-31T02:42:00;2.05;;;1.17;;
29168;SDS011;16219;42.864;23.360;2023-03-31T02:44:31;1.25;;;1.20;;
29168;SDS011;16219;42.864;23.360;2023-03-31T02:46:59;1.33;;;1.17;;
29168;SDS011;16219;42.864;23.360;2023-03-31T02:49:26;1.40;;;1.30;;
29168;SDS011;16219;42.864;23.360;2023-03-31T02:54:59;5.97;;;1.55;;
29168;SDS011;16219;42.864;23.360;2023-03-31T03:01:12;2.30;;;1.42;;
29168;SDS011;16219;42.864;23.360;2023-03-31T03:03:58;2.22;;;1.83;;
29168;SDS011;16219;42.864;23.360;2023-03-31T03:06:38;2.20;;;2.00;;
29168;SDS011;16219;42.864;23.360;2023-03-31T03:09:25;1.85;;;1.67;;
29168;SDS011;16219;42.864;23.360;2023-03-31T03:12:04;2.95;;;2.17;;
29168;SDS011;16219;42.864;23.360;2023-03-31T03:14:38;2.38;;;2.17;;
29168;SDS011;16219;42.864;23.360;2023-03-31T03:17:15;2.72;;;1.73;;
29168;SDS011;16219;42.864;23.360;2023-03-31T03:19:50;7.75;;;2.05;;
29168;SDS011;16219;42.864;23.360;2023-03-31T03:22:19;1.48;;;1.38;;
29168;SDS011;16219;42.864;23.360;2023-03-31T03:24:46;1.00;;;1.00;;
29168;SDS011;16219;42.864;23.360;2023-03-31T03:27:13;1.83;;;1.42;;
29168;SDS011;16219;42.864;23.360;2023-03-31T03:29:40;2.83;;;2.22;;
29168;SDS011;16219;42.864;23.360;2023-03-31T03:32:07;2.38;;;1.60;;
29168;SDS011;16219;42.864;23.360;2023-03-31T03:34:36;1.80;;;1.63;;
29168;SDS011;16219;42.864;23.360;2023-03-31T03:37:03;6.40;;;2.42;;
29168;SDS011;16219;42.864;23.360;2023-03-31T03:39:31;2.15;;;1.95;;
29168;SDS011;16219;42.864;23.360;2023-03-31T03:41:58;5.13;;;2.40;;
29168;SDS011;16219;42.864;23.360;2023-03-31T03:44:25;4.32;;;1.73;;
29168;SDS011;16219;42.864;23.360;2023-03-31T03:46:52;23.58;;;2.47;;
29168;SDS011;16219;42.864;23.360;2023-03-31T03:49:19;6.45;;;2.40;;
29168;SDS011;16219;42.864;23.360;2023-03-31T03:51:47;1.35;;;1.25;;
29168;SDS011;16219;42.864;23.360;2023-03-31T03:54:14;1.10;;;1.10;;
29168;SDS011;16219;42.864;23.360;2023-03-31T03:56:42;1.38;;;1.27;;
29168;SDS011;16219;42.864;23.360;2023-03-31T03:59:09;1.17;;;1.08;;
29168;SDS011;16219;42.864;23.360;2023-03-31T04:01:37;1.55;;;1.45;;
29168;SDS011;16219;42.864;23.360;2023-03-31T04:04:04;1.27;;;1.15;;
29168;SDS011;16219;42.864;23.360;2023-03-31T04:06:31;0.80;;;0.80;;
29168;SDS011;16219;42.864;23.360;2023-03-31T04:08:59;1.45;;;1.35;;
29168;SDS011;16219;42.864;23.360;2023-03-31T04:11:26;2.53;;;1.42;;
29168;SDS011;16219;42.864;23.360;2023-03-31T04:13:53;2.80;;;2.33;;
29168;SDS011;16219;42.864;23.360;2023-03-31T04:16:20;1.70;;;1.60;;
29168;SDS011;16219;42.864;23.360;2023-03-31T04:18:49;1.50;;;1.35;;
29168;SDS011;16219;42.864;23.360;2023-03-31T04:21:17;5.22;;;2.20;;
29168;SDS011;16219;42.864;23.360;2023-03-31T04:23:48;1.70;;;1.60;;
29168;SDS011;16219;42.864;23.360;2023-03-31T04:26:25;1.92;;;1.55;;
29168;SDS011;16219;42.864;23.360;2023-03-31T04:29:06;2.35;;;1.88;;
29168;SDS011;16219;42.864;23.360;2023-03-31T04:31:34;1.77;;;1.60;;
29168;SDS011;16219;42.864;23.360;2023-03-31T04:34:07;1.55;;;1.45;;
29168;SDS011;16219;42.864;23.360;2023-03-31T04:36:37;2.55;;;1.73;;
29168;SDS011;16219;42.864;23.360;2023-03-31T04:39:07;1.63;;;1.52;;
29168;SDS011;16219;42.864;23.360;2023-03-31T04:41:37;2.78;;;2.17;;
29168;SDS011;16219;42.864;23.360;2023-03-31T04:44:04;5.05;;;3.13;;
29168;SDS011;16219;42.864;23.360;2023-03-31T04:46:31;6.93;;;3.70;;
29168;SDS011;16219;42.864;23.360;2023-03-31T04:48:59;4.57;;;3.88;;
29168;SDS011;16219;42.864;23.360;2023-03-31T04:51:27;5.13;;;3.25;;
29168;SDS011;16219;42.864;23.360;2023-03-31T04:53:54;4.35;;;3.15;;
29168;SDS011;16219;42.864;23.360;2023-03-31T04:56:21;2.78;;;2.53;;
29168;SDS011;16219;42.864;23.360;2023-03-31T04:58:50;2.25;;;1.85;;
29168;SDS011;16219;42.864;23.360;2023-03-31T05:01:17;1.80;;;1.70;;
29168;SDS011;16219;42.864;23.360;2023-03-31T05:03:44;2.17;;;1.98;;
29168;SDS011;16219;42.864;23.360;2023-03-31T05:06:12;4.03;;;3.20;;
29168;SDS011;16219;42.864;23.360;2023-03-31T05:08:40;10.80;;;5.32;;
29168;SDS011;16219;42.864;23.360;2023-03-31T05:11:08;7.93;;;5.80;;
29168;SDS011;16219;42.864;23.360;2023-03-31T05:13:36;17.20;;;6.63;;
29168;SDS011;16219;42.864;23.360;2023-03-31T05:16:08;7.95;;;5.72;;
29168;SDS011;16219;42.864;23.360;2023-03-31T05:18:39;2.35;;;2.17;;
29168;SDS011;16219;42.864;23.360;2023-03-31T05:21:10;3.88;;;3.15;;
29168;SDS011;16219;42.864;23.360;2023-03-31T05:23:38;2.83;;;2.63;;
29168;SDS011;16219;42.864;23.360;2023-03-31T05:26:05;7.47;;;3.47;;
29168;SDS011;16219;42.864;23.360;2023-03-31T05:28:33;2.90;;;2.40;;
29168;SDS011;16219;42.864;23.360;2023-03-31T05:31:00;3.13;;;2.72;;
29168;SDS011;16219;42.864;23.360;2023-03-31T05:33:30;2.65;;;2.45;;
29168;SDS011;16219;42.864;23.360;2023-03-31T05:35:57;3.80;;;3.08;;
29168;SDS011;16219;42.864;23.360;2023-03-31T05:38:25;9.10;;;3.65;;
29168;SDS011;16219;42.864;23.360;2023-03-31T05:40:55;3.08;;;2.05;;
29168;SDS011;16219;42.864;23.360;2023-03-31T05:43:22;2.13;;;2.03;;
29168;SDS011;16219;42.864;23.360;2023-03-31T05:45:49;9.98;;;2.53;;
29168;SDS011;16219;42.864;23.360;2023-03-31T05:48:17;2.40;;;2.00;;
29168;SDS011;16219;42.864;23.360;2023-03-31T05:50:45;2.75;;;1.58;;
29168;SDS011;16219;42.864;23.360;2023-03-31T05:53:12;4.05;;;2.00;;
29168;SDS011;16219;42.864;23.360;2023-03-31T05:55:40;3.88;;;2.97;;
29168;SDS011;16219;42.864;23.360;2023-03-31T05:58:07;5.93;;;3.47;;
29168;SDS011;16219;42.864;23.360;2023-03-31T06:00:34;4.60;;;2.67;;
29168;SDS011;16219;42.864;23.360;2023-03-31T06:03:02;2.40;;;1.98;;
29168;SDS011;16219;42.864;23.360;2023-03-31T06:05:32;2.28;;;2.08;;
29168;SDS011;16219;42.864;23.360;2023-03-31T06:08:01;2.50;;;1.80;;
29168;SDS011;16219;42.864;23.360;2023-03-31T06:10:28;2.58;;;2.22;;
29168;SDS011;16219;42.864;23.360;2023-03-31T06:12:55;3.47;;;2.08;;
29168;SDS011;16219;42.864;23.360;2023-03-31T06:15:22;1.95;;;1.73;;
29168;SDS011;16219;42.864;23.360;2023-03-31T06:17:49;3.60;;;2.40;;
29168;SDS011;16219;42.864;23.360;2023-03-31T06:20:17;4.57;;;3.05;;
29168;SDS011;16219;42.864;23.360;2023-03-31T06:22:43;2.78;;;2.33;;
29168;SDS011;16219;42.864;23.360;2023-03-31T06:25:12;1.60;;;1.50;;
29168;SDS011;16219;42.864;23.360;2023-03-31T06:27:39;4.45;;;2.60;;
29168;SDS011;16219;42.864;23.360;2023-03-31T06:30:07;2.35;;;2.15;;
29168;SDS011;16219;42.864;23.360;2023-03-31T06:32:35;3.60;;;2.38;;
29168;SDS011;16219;42.864;23.360;2023-03-31T06:35:03;1.92;;;1.80;;
29168;SDS011;16219;42.864;23.360;2023-03-31T06:37:30;3.67;;;2.33;;
29168;SDS011;16219;42.864;23.360;2023-03-31T06:39:58;1.40;;;1.30;;
29168;SDS011;16219;42.864;23.360;2023-03-31T06:42:26;19.63;;;3.28;;
29168;SDS011;16219;42.864;23.360;2023-03-31T06:44:54;1.42;;;1.27;;
29168;SDS011;16219;42.864;23.360;2023-03-31T06:47:21;2.45;;;1.33;;
29168;SDS011;16219;42.864;23.360;2023-03-31T06:49:48;3.45;;;1.90;;
29168;SDS011;16219;42.864;23.360;2023-03-31T06:52:15;2.90;;;1.88;;
29168;SDS011;16219;42.864;23.360;2023-03-31T06:54:42;7.05;;;1.52;;
29168;SDS011;16219;42.864;23.360;2023-03-31T06:57:09;2.60;;;1.60;;
29168;SDS011;16219;42.864;23.360;2023-03-31T06:59:37;1.55;;;1.45;;
29168;SDS011;16219;42.864;23.360;2023-03-31T07:02:04;1.83;;;1.67;;
29168;SDS011;16219;42.864;23.360;2023-03-31T07:04:31;1.08;;;1.08;;
29168;SDS011;16219;42.864;23.360;2023-03-31T07:06:58;1.35;;;1.13;;
29168;SDS011;16219;42.864;23.360;2023-03-31T07:09:25;1.63;;;1.52;;
29168;SDS011;16219;42.864;23.360;2023-03-31T07:11:52;0.85;;;0.85;;
29168;SDS011;16219;42.864;23.360;2023-03-31T07:14:19;2.13;;;1.42;;
29168;SDS011;16219;42.864;23.360;2023-03-31T07:16:48;1.30;;;1.20;;
29168;SDS011;16219;42.864;23.360;2023-03-31T07:19:16;1.38;;;0.95;;
29168;SDS011;16219;42.864;23.360;2023-03-31T07:21:43;1.27;;;1.13;;
29168;SDS011;16219;42.864;23.360;2023-03-31T07:24:10;1.25;;;1.02;;
29168;SDS011;16219;42.864;23.360;2023-03-31T07:26:37;2.30;;;2.03;;
29168;SDS011;16219;42.864;23.360;2023-03-31T07:29:04;0.65;;;0.65;;
29168;SDS011;16219;42.864;23.360;2023-03-31T07:31:32;0.60;;;0.60;;
29168;SDS011;16219;42.864;23.360;2023-03-31T07:34:01;0.50;;;0.50;;
29168;SDS011;16219;42.864;23.360;2023-03-31T07:36:29;1.75;;;1.58;;
29168;SDS011;16219;42.864;23.360;2023-03-31T07:38:56;1.20;;;0.75;;
29168;SDS011;16219;42.864;23.360;2023-03-31T07:41:23;0.80;;;0.80;;
29168;SDS011;16219;42.864;23.360;2023-03-31T07:43:51;1.05;;;0.70;;
29168;SDS011;16219;42.864;23.360;2023-03-31T07:46:19;1.67;;;1.17;;
29168;SDS011;16219;42.864;23.360;2023-03-31T07:48:47;1.17;;;1.08;;
29168;SDS011;16219;42.864;23.360;2023-03-31T07:51:16;0.45;;;0.45;;
29168;SDS011;16219;42.864;23.360;2023-03-31T07:53:45;0.70;;;0.70;;
29168;SDS011;16219;42.864;23.360;2023-03-31T07:56:16;1.30;;;1.20;;
29168;SDS011;16219;42.864;23.360;2023-03-31T07:58:44;1.00;;;0.93;;
29168;SDS011;16219;42.864;23.360;2023-03-31T08:01:12;1.20;;;0.82;;
29168;SDS011;16219;42.864;23.360;2023-03-31T08:03:41;0.40;;;0.40;;
29168;SDS011;16219;42.864;23.360;2023-03-31T08:06:08;0.60;;;0.60;;
29168;SDS011;16219;42.864;23.360;2023-03-31T08:08:37;0.45;;;0.45;;
29168;SDS011;16219;42.864;23.360;2023-03-31T08:11:07;3.20;;;0.77;;
29168;SDS011;16219;42.864;23.360;2023-03-31T08:13:34;0.95;;;0.85;;
29168;SDS011;16219;42.864;23.360;2023-03-31T08:16:01;20.23;;;1.67;;
29168;SDS011;16219;42.864;23.360;2023-03-31T08:18:29;1.90;;;0.82;;
29168;SDS011;16219;42.864;23.360;2023-03-31T08:20:55;1.63;;;0.85;;
29168;SDS011;16219;42.864;23.360;2023-03-31T08:23:23;7.13;;;2.00;;
29168;SDS011;16219;42.864;23.360;2023-03-31T08:25:51;0.98;;;0.90;;
29168;SDS011;16219;42.864;23.360;2023-03-31T08:28:18;0.77;;;0.77;;
29168;SDS011;16219;42.864;23.360;2023-03-31T08:30:45;0.40;;;0.40;;
29168;SDS011;16219;42.864;23.360;2023-03-31T08:33:12;0.47;;;0.47;;
29168;SDS011;16219;42.864;23.360;2023-03-31T08:35:39;22.70;;;1.00;;
29168;SDS011;16219;42.864;23.360;2023-03-31T08:38:06;0.70;;;0.70;;
29168;SDS011;16219;42.864;23.360;2023-03-31T08:40:33;1.10;;;1.02;;
29168;SDS011;16219;42.864;23.360;2023-03-31T08:43:03;0.68;;;0.68;;
29168;SDS011;16219;42.864;23.360;2023-03-31T08:45:34;0.73;;;0.73;;
29168;SDS011;16219;42.864;23.360;2023-03-31T08:48:05;0.68;;;0.68;;
29168;SDS011;16219;42.864;23.360;2023-03-31T08:50:38;0.75;;;0.75;;
29168;SDS011;16219;42.864;23.360;2023-03-31T08:53:12;1.25;;;0.73;;
29168;SDS011;16219;42.864;23.360;2023-03-31T08:55:48;0.35;;;0.35;;
29168;SDS011;16219;42.864;23.360;2023-03-31T08:58:22;3.33;;;0.77;;
29168;SDS011;16219;42.864;23.360;2023-03-31T09:00:59;0.43;;;0.43;;
29168;SDS011;16219;42.864;23.360;2023-03-31T09:03:30;0.52;;;0.52;;
29168;SDS011;16219;42.864;23.360;2023-03-31T09:06:09;2.05;;;0.98;;
29168;SDS011;16219;42.864;23.360;2023-03-31T09:08:43;0.55;;;0.55;;
29168;SDS011;16219;42.864;23.360;2023-03-31T09:11:12;0.68;;;0.68;;
29168;SDS011;16219;42.864;23.360;2023-03-31T09:13:55;0.45;;;0.45;;
29168;SDS011;16219;42.864;23.360;2023-03-31T09:16:29;0.28;;;0.28;;
29168;SDS011;16219;42.864;23.360;2023-03-31T09:19:01;0.47;;;0.47;;
29168;SDS011;16219;42.864;23.360;2023-03-31T09:21:30;0.55;;;0.55;;
29168;SDS011;16219;42.864;23.360;2023-03-31T09:24:02;0.40;;;0.40;;
29168;SDS011;16219;42.864;23.360;2023-03-31T09:26:33;0.57;;;0.57;;
29168;SDS011;16219;42.864;23.360;2023-03-31T09:29:11;0.65;;;0.30;;
29168;SDS011;16219;42.864;23.360;2023-03-31T09:31:43;0.65;;;0.65;;
29168;SDS011;16219;42.864;23.360;2023-03-31T09:34:12;0.70;;;0.65;;
29168;SDS011;16219;42.864;23.360;2023-03-31T09:36:42;0.20;;;0.20;;
29168;SDS011;16219;42.864;23.360;2023-03-31T09:39:11;0.50;;;0.50;;
29168;SDS011;16219;42.864;23.360;2023-03-31T09:41:39;1.10;;;0.55;;
29168;SDS011;16219;42.864;23.360;2023-03-31T09:44:14;1.60;;;1.15;;
29168;SDS011;16219;42.864;23.360;2023-03-31T09:46:49;0.40;;;0.40;;
29168;SDS011;16219;42.864;23.360;2023-03-31T09:49:17;3.75;;;0.52;;
29168;SDS011;16219;42.864;23.360;2023-03-31T09:51:47;2.47;;;1.15;;
29168;SDS011;16219;42.864;23.360;2023-03-31T09:54:21;0.70;;;0.70;;
29168;SDS011;16219;42.864;23.360;2023-03-31T09:56:53;0.65;;;0.60;;
29168;SDS011;16219;42.864;23.360;2023-03-31T09:59:22;0.50;;;0.50;;
29168;SDS011;16219;42.864;23.360;2023-03-31T10:01:56;0.50;;;0.50;;
29168;SDS011;16219;42.864;23.360;2023-03-31T10:04:27;1.30;;;1.00;;
29168;SDS011;16219;42.864;23.360;2023-03-31T10:06:56;0.25;;;0.25;;
29168;SDS011;16219;42.864;23.360;2023-03-31T10:09:25;1.95;;;0.75;;
29168;SDS011;16219;42.864;23.360;2023-03-31T10:11:55;0.65;;;0.65;;
29168;SDS011;16219;42.864;23.360;2023-03-31T10:14:31;0.40;;;0.40;;
29168;SDS011;16219;42.864;23.360;2023-03-31T10:17:04;0.68;;;0.68;;
29168;SDS011;16219;42.864;23.360;2023-03-31T10:19:33;0.63;;;0.63;;
29168;SDS011;16219;42.864;23.360;2023-03-31T10:22:02;0.50;;;0.50;;
29168;SDS011;16219;42.864;23.360;2023-03-31T10:24:35;0.20;;;0.20;;
29168;SDS011;16219;42.864;23.360;2023-03-31T10:27:04;0.43;;;0.43;;
29168;SDS011;16219;42.864;23.360;2023-03-31T10:29:48;0.98;;;0.82;;
29168;SDS011;16219;42.864;23.360;2023-03-31T10:32:21;4.65;;;0.28;;
29168;SDS011;16219;42.864;23.360;2023-03-31T10:34:53;0.77;;;0.77;;
29168;SDS011;16219;42.864;23.360;2023-03-31T10:37:22;6.75;;;1.10;;
29168;SDS011;16219;42.864;23.360;2023-03-31T10:39:55;0.68;;;0.68;;
29168;SDS011;16219;42.864;23.360;2023-03-31T10:42:24;0.70;;;0.70;;
29168;SDS011;16219;42.864;23.360;2023-03-31T10:47:51;0.85;;;0.57;;
29168;SDS011;16219;42.864;23.360;2023-03-31T10:50:19;0.80;;;0.75;;
29168;SDS011;16219;42.864;23.360;2023-03-31T10:52:54;11.88;;;1.10;;
29168;SDS011;16219;42.864;23.360;2023-03-31T10:55:30;0.52;;;0.52;;
29168;SDS011;16219;42.864;23.360;2023-03-31T10:58:01;0.22;;;0.22;;
29168;SDS011;16219;42.864;23.360;2023-03-31T11:00:37;9.35;;;0.93;;
29168;SDS011;16219;42.864;23.360;2023-03-31T11:03:29;0.50;;;0.50;;
29168;SDS011;16219;42.864;23.360;2023-03-31T11:06:12;0.30;;;0.30;;
29168;SDS011;16219;42.864;23.360;2023-03-31T11:08:48;0.55;;;0.55;;
29168;SDS011;16219;42.864;23.360;2023-03-31T11:11:30;0.95;;;0.95;;
29168;SDS011;16219;42.864;23.360;2023-03-31T11:14:12;0.40;;;0.40;;
29168;SDS011;16219;42.864;23.360;2023-03-31T11:16:48;0.50;;;0.50;;
29168;SDS011;16219;42.864;23.360;2023-03-31T11:19:26;0.25;;;0.25;;
29168;SDS011;16219;42.864;23.360;2023-03-31T11:22:06;4.20;;;0.88;;
29168;SDS011;16219;42.864;23.360;2023-03-31T11:24:46;6.30;;;1.38;;
29168;SDS011;16219;42.864;23.360;2023-03-31T11:27:34;1.30;;;0.60;;
29168;SDS011;16219;42.864;23.360;2023-03-31T11:30:09;0.40;;;0.40;;
29168;SDS011;16219;42.864;23.360;2023-03-31T11:32:50;0.63;;;0.63;;
29168;SDS011;16219;42.864;23.360;2023-03-31T11:35:32;0.55;;;0.55;;
29168;SDS011;16219;42.864;23.360;2023-03-31T11:38:17;0.47;;;0.47;;
29168;SDS011;16219;42.864;23.360;2023-03-31T11:40:59;0.50;;;0.50;;
29168;SDS011;16219;42.864;23.360;2023-03-31T11:43:31;0.30;;;0.30;;
29168;SDS011;16219;42.864;23.360;2023-03-31T11:46:03;1.13;;;0.65;;
29168;SDS011;16219;42.864;23.360;2023-03-31T11:48:39;2.50;;;1.15;;
29168;SDS011;16219;42.864;23.360;2023-03-31T11:51:12;0.28;;;0.28;;
29168;SDS011;16219;42.864;23.360;2023-03-31T11:53:42;0.30;;;0.30;;
29168;SDS011;16219;42.864;23.360;2023-03-31T11:56:12;1.67;;;0.85;;
29168;SDS011;16219;42.864;23.360;2023-03-31T11:58:44;0.45;;;0.30;;
29168;SDS011;16219;42.864;23.360;2023-03-31T12:01:16;0.60;;;0.60;;
29168;SDS011;16219;42.864;23.360;2023-03-31T12:03:59;0.80;;;0.65;;
29168;SDS011;16219;42.864;23.360;2023-03-31T12:06:30;0.32;;;0.32;;
29168;SDS011;16219;42.864;23.360;2023-03-31T12:09:06;0.47;;;0.47;;
29168;SDS011;16219;42.864;23.360;2023-03-31T12:11:41;1.45;;;1.13;;
29168;SDS011;16219;42.864;23.360;2023-03-31T12:14:14;1.02;;;0.93;;
29168;SDS011;16219;42.864;23.360;2023-03-31T12:16:51;0.22;;;0.22;;
29168;SDS011;16219;42.864;23.360;2023-03-31T12:19:24;0.55;;;0.55;;
29168;SDS011;16219;42.864;23.360;2023-03-31T12:21:55;0.40;;;0.40;;
29168;SDS011;16219;42.864;23.360;2023-03-31T12:24:26;0.63;;;0.50;;
29168;SDS011;16219;42.864;23.360;2023-03-31T12:26:56;0.50;;;0.50;;
29168;SDS011;16219;42.864;23.360;2023-03-31T12:29:31;0.75;;;0.75;;
29168;SDS011;16219;42.864;23.360;2023-03-31T12:32:02;0.88;;;0.82;;
29168;SDS011;16219;42.864;23.360;2023-03-31T12:34:34;0.40;;;0.40;;
29168;SDS011;16219;42.864;23.360;2023-03-31T12:40:21;1.48;;;0.98;;
29168;SDS011;16219;42.864;23.360;2023-03-31T12:43:07;0.40;;;0.40;;
29168;SDS011;16219;42.864;23.360;2023-03-31T12:45:54;0.65;;;0.50;;
29168;SDS011;16219;42.864;23.360;2023-03-31T12:48:34;0.30;;;0.30;;
29168;SDS011;16219;42.864;23.360;2023-03-31T12:51:14;0.77;;;0.77;;
29168;SDS011;16219;42.864;23.360;2023-03-31T12:53:55;0.80;;;0.80;;
29168;SDS011;16219;42.864;23.360;2023-03-31T13:04:46;0.85;;;0.50;;
29168;SDS011;16219;42.864;23.360;2023-03-31T13:10:26;0.57;;;0.57;;
29168;SDS011;16219;42.864;23.360;2023-03-31T13:13:01;0.40;;;0.40;;
29168;SDS011;16219;42.864;23.360;2023-03-31T13:15:30;0.17;;;0.17;;
29168;SDS011;16219;42.864;23.360;2023-03-31T13:17:59;0.25;;;0.25;;
29168;SDS011;16219;42.864;23.360;2023-03-31T13:20:34;0.30;;;0.30;;
29168;SDS011;16219;42.864;23.360;2023-03-31T13:23:05;0.47;;;0.47;;
29168;SDS011;16219;42.864;23.360;2023-03-31T13:25:47;0.20;;;0.20;;
29168;SDS011;16219;42.864;23.360;2023-03-31T13:31:04;0.75;;;0.65;;
29168;SDS011;16219;42.864;23.360;2023-03-31T13:33:33;0.35;;;0.35;;
29168;SDS011;16219;42.864;23.360;2023-03-31T13:36:29;0.47;;;0.47;;
29168;SDS011;16219;42.864;23.360;2023-03-31T13:42:32;0.60;;;0.60;;
29168;SDS011;16219;42.864;23.360;2023-03-31T13:45:22;0.45;;;0.45;;
29168;SDS011;16219;42.864;23.360;2023-03-31T13:48:13;0.70;;;0.57;;
29168;SDS011;16219;42.864;23.360;2023-03-31T13:51:14;0.60;;;0.60;;
29168;SDS011;16219;42.864;23.360;2023-03-31T13:54:06;0.80;;;0.80;;
29168;SDS011;16219;42.864;23.360;2023-03-31T13:57:05;0.50;;;0.50;;
29168;SDS011;16219;42.864;23.360;2023-03-31T13:59:55;1.30;;;1.02;;
29168;SDS011;16219;42.864;23.360;2023-03-31T14:02:46;5.68;;;0.75;;
29168;SDS011;16219;42.864;23.360;2023-03-31T14:05:23;0.75;;;0.65;;
29168;SDS011;16219;42.864;23.360;2023-03-31T14:07:54;2.67;;;0.77;;
29168;SDS011;16219;42.864;23.360;2023-03-31T14:10:27;1.27;;;0.38;;
29168;SDS011;16219;42.864;23.360;2023-03-31T14:13:06;1.55;;;0.55;;
29168;SDS011;16219;42.864;23.360;2023-03-31T14:15:37;0.35;;;0.35;;
29168;SDS011;16219;42.864;23.360;2023-03-31T14:18:07;4.25;;;0.68;;
29168;SDS011;16219;42.864;23.360;2023-03-31T14:20:39;0.35;;;0.35;;
29168;SDS011;16219;42.864;23.360;2023-03-31T14:23:15;0.40;;;0.40;;
29168;SDS011;16219;42.864;23.360;2023-03-31T14:25:52;0.50;;;0.50;;
29168;SDS011;16219;42.864;23.360;2023-03-31T14:28:31;1.13;;;1.10;;
29168;SDS011;16219;42.864;23.360;2023-03-31T14:31:14;2.30;;;0.88;;
29168;SDS011;16219;42.864;23.360;2023-03-31T14:33:49;2.08;;;0.80;;
29168;SDS011;16219;42.864;23.360;2023-03-31T14:36:29;0.38;;;0.38;;
29168;SDS011;16219;42.864;23.360;2023-03-31T14:39:03;0.40;;;0.40;;
29168;SDS011;16219;42.864;23.360;2023-03-31T14:41:34;0.57;;;0.57;;
29168;SDS011;16219;42.864;23.360;2023-03-31T14:44:03;0.82;;;0.80;;
29168;SDS011;16219;42.864;23.360;2023-03-31T14:46:36;0.70;;;0.70;;
29168;SDS011;16219;42.864;23.360;2023-03-31T14:49:14;0.30;;;0.30;;
29168;SDS011;16219;42.864;23.360;2023-03-31T14:51:45;0.22;;;0.22;;
29168;SDS011;16219;42.864;23.360;2023-03-31T14:54:14;0.80;;;0.80;;
29168;SDS011;16219;42.864;23.360;2023-03-31T14:56:42;0.40;;;0.30;;
29168;SDS011;16219;42.864;23.360;2023-03-31T14:59:13;0.82;;;0.82;;
29168;SDS011;16219;42.864;23.360;2023-03-31T15:01:46;0.77;;;0.57;;
29168;SDS011;16219;42.864;23.360;2023-03-31T15:04:16;0.63;;;0.63;;
29168;SDS011;16219;42.864;23.360;2023-03-31T15:06:48;0.40;;;0.40;;
29168;SDS011;16219;42.864;23.360;2023-03-31T15:09:18;0.50;;;0.50;;
29168;SDS011;16219;42.864;23.360;2023-03-31T15:11:52;1.47;;;0.87;;
29168;SDS011;16219;42.864;23.360;2023-03-31T15:14:22;0.52;;;0.52;;
29168;SDS011;16219;42.864;23.360;2023-03-31T15:16:55;1.02;;;0.98;;
29168;SDS011;16219;42.864;23.360;2023-03-31T15:19:23;0.82;;;0.80;;
29168;SDS011;16219;42.864;23.360;2023-03-31T15:21:55;0.82;;;0.82;;
29168;SDS011;16219;42.864;23.360;2023-03-31T15:24:26;1.00;;;0.90;;
29168;SDS011;16219;42.864;23.360;2023-03-31T15:26:55;1.75;;;1.08;;
29168;SDS011;16219;42.864;23.360;2023-03-31T15:29:28;1.30;;;0.98;;
29168;SDS011;16219;42.864;23.360;2023-03-31T15:32:04;0.45;;;0.45;;
29168;SDS011;16219;42.864;23.360;2023-03-31T15:34:33;0.90;;;0.60;;
29168;SDS011;16219;42.864;23.360;2023-03-31T15:37:01;1.48;;;1.38;;
29168;SDS011;16219;42.864;23.360;2023-03-31T15:39:32;0.98;;;0.85;;
29168;SDS011;16219;42.864;23.360;2023-03-31T15:42:02;1.08;;;0.95;;
29168;SDS011;16219;42.864;23.360;2023-03-31T15:44:36;4.55;;;2.15;;